Time;durP1;ratioP1;P1;durP2;ratioP2;P2;SDS_P1;SDS_P2;PMS_P1;PMS_P2;Temp;Humidity;BMP_temperature;BMP_pressure;BME280_temperature;BME280_humidity;BME280_pressure;Samples;Min_cycle;Max_cycle;Signal;HPM_P1;HPM_P2
2021/07/25 00:01:52;;;;;;;6.40;5.20;;;;;;;18.44;nan;99835.03;4974112;28;20035;-77
2021/07/25 00:04:17;;;;;;;6.53;5.10;;;;;;;18.46;nan;99835.63;4969231;28;20058;-75
2021/07/25 00:06:43;;;;;;;6.10;4.85;;;;;;;18.43;nan;99832.59;4967033;28;20282;-77
2021/07/25 00:09:08;;;;;;;6.80;5.65;;;;;;;18.35;nan;99823.00;4964966;28;20107;-77
2021/07/25 00:11:33;;;;;;;5.07;4.50;;;;;;;18.33;nan;99827.75;4969201;28;20041;-76
2021/07/25 00:14:03;;;;;;;6.43;4.65;;;;;;;18.31;nan;99829.81;4980871;28;20031;-77
2021/07/25 00:16:31;;;;;;;5.63;4.00;;;;;;;18.30;nan;99846.91;4971461;28;20058;-77
2021/07/25 00:18:57;;;;;;;4.85;4.13;;;;;;;18.31;nan;99845.88;4968423;28;20039;-77
2021/07/25 00:21:23;;;;;;;4.57;3.72;;;;;;;18.31;nan;99848.56;4973365;28;20054;-77
2021/07/25 00:23:52;;;;;;;7.15;5.53;;;;;;;18.27;nan;99842.00;4961578;28;20458;-77
2021/07/25 00:26:25;;;;;;;5.57;4.88;;;;;;;18.23;nan;99840.78;4965392;28;20130;-77
2021/07/25 00:28:51;;;;;;;5.65;4.65;;;;;;;18.25;nan;99844.06;4957258;28;20026;-77
2021/07/25 00:31:18;;;;;;;7.47;5.28;;;;;;;18.24;nan;99840.56;4972806;28;20039;-77
2021/07/25 00:33:44;;;;;;;8.27;6.45;;;;;;;18.15;nan;99839.22;4972412;28;20035;-77
2021/07/25 00:36:10;;;;;;;7.75;6.13;;;;;;;18.09;nan;99836.59;4971451;28;20088;-76
2021/07/25 00:38:36;;;;;;;6.82;5.53;;;;;;;18.04;nan;99840.75;4969428;28;20063;-75
2021/07/25 00:41:12;;;;;;;6.75;5.15;;;;;;;18.03;nan;99833.75;4984512;28;20047;-77
2021/07/25 00:43:39;;;;;;;6.32;5.03;;;;;;;18.01;nan;99835.00;4958225;28;20673;-77
2021/07/25 00:46:05;;;;;;;6.10;4.93;;;;;;;17.97;nan;99829.28;4967988;28;20036;-76
2021/07/25 00:48:34;;;;;;;8.02;5.57;;;;;;;17.95;nan;99839.38;4973471;28;20031;-76
2021/07/25 00:51:00;;;;;;;7.63;5.43;;;;;;;17.94;nan;99840.38;4969796;28;20066;-76
2021/07/25 00:53:27;;;;;;;6.60;5.80;;;;;;;17.92;nan;99831.75;4971384;28;20089;-76
2021/07/25 00:55:54;;;;;;;8.52;6.07;;;;;;;17.95;nan;99841.22;4972382;28;20507;-77
2021/07/25 00:58:21;;;;;;;7.03;5.70;;;;;;;17.96;nan;99838.31;4971605;28;20077;-76
2021/07/25 01:00:48;;;;;;;7.65;5.78;;;;;;;17.99;nan;99837.88;4971915;28;20042;-76
2021/07/25 01:03:40;;;;;;;6.47;5.43;;;;;;;18.05;nan;99841.56;4970675;28;20515;-77
2021/07/25 01:06:38;;;;;;;6.38;5.15;;;;;;;18.12;nan;99846.88;4958150;28;20135;-77
2021/07/25 01:09:11;;;;;;;5.25;4.35;;;;;;;18.15;nan;99838.41;4965275;28;20510;-77
2021/07/25 01:11:43;;;;;;;6.18;5.13;;;;;;;18.18;nan;99830.72;4965495;28;20046;-76
2021/07/25 01:14:17;;;;;;;6.65;5.18;;;;;;;18.26;nan;99835.03;4968873;28;20138;-77
2021/07/25 01:16:43;;;;;;;6.20;5.10;;;;;;;18.28;nan;99834.78;4977479;28;20061;-76
2021/07/25 01:19:10;;;;;;;7.70;6.05;;;;;;;18.30;nan;99832.72;4971650;28;20529;-76
2021/07/25 01:21:36;;;;;;;10.15;6.90;;;;;;;18.31;nan;99840.53;4963654;28;20126;-76
2021/07/25 01:24:03;;;;;;;7.18;5.20;;;;;;;18.34;nan;99832.06;4966568;28;20027;-77
2021/07/25 01:26:34;;;;;;;9.27;6.03;;;;;;;18.38;nan;99827.09;4967969;28;20093;-76
2021/07/25 01:29:03;;;;;;;6.88;5.40;;;;;;;18.39;nan;99831.41;4970702;28;20030;-78
2021/07/25 01:31:36;;;;;;;9.25;6.05;;;;;;;18.39;nan;99820.69;4967134;28;20039;-76
2021/07/25 01:34:02;;;;;;;6.22;4.90;;;;;;;18.41;nan;99808.72;4969650;28;20121;-77
2021/07/25 01:36:30;;;;;;;7.60;5.30;;;;;;;18.46;nan;99814.22;4959716;28;20474;-77
2021/07/25 01:38:58;;;;;;;6.45;5.07;;;;;;;18.43;nan;99812.00;4962540;28;20038;-77
2021/07/25 01:41:27;;;;;;;8.60;6.47;;;;;;;18.43;nan;99806.63;4966894;28;20208;-77
2021/07/25 01:43:56;;;;;;;8.15;5.93;;;;;;;18.42;nan;99815.72;4963139;28;20035;-76
2021/07/25 01:46:22;;;;;;;7.38;5.90;;;;;;;18.40;nan;99808.94;4962162;28;20038;-77
2021/07/25 01:48:49;;;;;;;6.28;5.13;;;;;;;18.42;nan;99807.69;4961291;28;20577;-77
2021/07/25 01:51:15;;;;;;;6.85;5.05;;;;;;;18.41;nan;99807.91;4963587;28;20062;-77
2021/07/25 01:53:41;;;;;;;6.05;5.20;;;;;;;18.41;nan;99807.91;4965292;28;20031;-76
2021/07/25 01:56:08;;;;;;;6.60;5.30;;;;;;;18.43;nan;99805.84;4960272;28;20113;-77
2021/07/25 01:58:34;;;;;;;9.25;6.00;;;;;;;18.43;nan;99809.31;4973126;28;20039;-77
2021/07/25 02:01:00;;;;;;;9.35;5.90;;;;;;;18.37;nan;99804.03;4965614;28;20662;-77
2021/07/25 02:03:28;;;;;;;9.93;6.50;;;;;;;18.31;nan;99810.28;4965166;28;20151;-76
2021/07/25 02:05:54;;;;;;;8.45;6.15;;;;;;;18.28;nan;99806.16;4974459;28;20023;-76
2021/07/25 02:08:20;;;;;;;6.97;5.53;;;;;;;18.28;nan;99808.00;4973926;28;20054;-76
2021/07/25 02:10:48;;;;;;;8.02;5.90;;;;;;;18.23;nan;99814.88;4966610;28;20069;-77
2021/07/25 02:13:16;;;;;;;7.97;6.13;;;;;;;18.19;nan;99818.19;4970031;28;20526;-76
2021/07/25 02:15:43;;;;;;;6.68;5.28;;;;;;;18.20;nan;99817.97;4972823;28;20073;-77
2021/07/25 02:18:10;;;;;;;5.72;5.00;;;;;;;18.22;nan;99828.47;4971627;28;20031;-78
2021/07/25 02:20:43;;;;;;;6.72;5.50;;;;;;;18.27;nan;99823.25;4973391;28;20376;-77
2021/07/25 02:23:09;;;;;;;6.70;5.38;;;;;;;18.38;nan;99827.09;4960952;28;20027;-77
2021/07/25 02:25:37;;;;;;;8.65;6.82;;;;;;;18.51;nan;99824.28;4972626;28;20504;-77
2021/07/25 02:28:07;;;;;;;8.77;6.15;;;;;;;18.57;nan;99825.25;4970608;28;20502;-77
2021/07/25 02:30:34;;;;;;;7.65;5.53;;;;;;;18.63;nan;99819.81;4974109;28;20031;-76
2021/07/25 02:33:00;;;;;;;8.93;6.68;;;;;;;18.68;nan;99827.19;4971730;28;20101;-76
2021/07/25 02:35:27;;;;;;;7.90;6.38;;;;;;;18.68;nan;99825.31;4968196;28;20039;-76
2021/07/25 02:37:52;;;;;;;9.77;6.65;;;;;;;18.73;nan;99831.88;4975273;28;20047;-77
2021/07/25 02:40:17;;;;;;;9.25;6.68;;;;;;;18.78;nan;99835.59;4979905;28;20037;-77
2021/07/25 02:42:43;;;;;;;10.82;7.18;;;;;;;18.80;nan;99832.66;4971967;28;20042;-76
2021/07/25 02:45:09;;;;;;;11.07;6.65;;;;;;;18.84;nan;99831.19;4969970;28;20054;-77
2021/07/25 02:47:34;;;;;;;7.22;6.00;;;;;;;18.85;nan;99830.13;4965693;28;20038;-77
2021/07/25 02:50:00;;;;;;;7.88;6.60;;;;;;;18.89;nan;99834.00;4972789;28;20396;-77
2021/07/25 02:52:25;;;;;;;8.65;6.95;;;;;;;18.86;nan;99832.59;4973466;28;20038;-76
2021/07/25 02:54:50;;;;;;;7.80;6.38;;;;;;;18.87;nan;99844.94;4970638;28;20217;-77
2021/07/25 02:57:16;;;;;;;7.47;5.88;;;;;;;18.93;nan;99853.16;4972927;28;20047;-77
2021/07/25 02:59:41;;;;;;;8.35;6.80;;;;;;;18.92;nan;99852.31;4975236;28;20055;-76
2021/07/25 03:02:06;;;;;;;8.88;6.47;;;;;;;18.92;nan;99846.13;4967575;28;20439;-78
2021/07/25 03:04:32;;;;;;;7.63;6.15;;;;;;;18.91;nan;99858.72;4970032;28;20509;-77
2021/07/25 03:06:57;;;;;;;9.25;6.07;;;;;;;18.91;nan;99853.34;4966316;28;20042;-77
2021/07/25 03:09:22;;;;;;;7.50;5.30;;;;;;;18.93;nan;99863.88;4977936;28;20105;-77
2021/07/25 03:11:47;;;;;;;7.15;5.20;;;;;;;18.92;nan;99862.22;4972524;28;20047;-77
2021/07/25 03:14:13;;;;;;;9.43;6.60;;;;;;;18.89;nan;99860.78;4978129;28;20538;-76
2021/07/25 03:16:38;;;;;;;8.07;6.18;;;;;;;18.95;nan;99862.59;4968231;28;20035;-77
2021/07/25 03:19:04;;;;;;;9.02;6.80;;;;;;;18.92;nan;99862.22;4971878;28;20428;-77
2021/07/25 03:21:29;;;;;;;8.25;6.10;;;;;;;18.94;nan;99852.91;4960308;28;20039;-77
2021/07/25 03:23:54;;;;;;;8.57;6.55;;;;;;;19.00;nan;99859.25;4972728;28;20035;-77
2021/07/25 03:26:20;;;;;;;8.63;7.22;;;;;;;19.01;nan;99858.19;4962428;28;20511;-77
2021/07/25 03:28:46;;;;;;;9.70;6.88;;;;;;;18.98;nan;99851.44;4972869;28;20039;-77
2021/07/25 03:31:11;;;;;;;7.38;5.50;;;;;;;18.93;nan;99840.56;4968103;28;20130;-77
2021/07/25 03:33:36;;;;;;;10.07;6.75;;;;;;;18.97;nan;99835.56;4970796;28;20142;-77
2021/07/25 03:36:02;;;;;;;7.20;6.43;;;;;;;18.94;nan;99834.16;4963649;28;20118;-77
2021/07/25 03:38:27;;;;;;;9.07;6.38;;;;;;;18.93;nan;99842.44;4962120;28;20039;-77
2021/07/25 03:41:00;;;;;;;10.98;6.65;;;;;;;18.90;nan;99835.63;4975248;28;20055;-76
2021/07/25 03:43:25;;;;;;;10.13;6.97;;;;;;;18.85;nan;99835.47;4970959;28;20322;-76
2021/07/25 03:45:51;;;;;;;7.80;6.30;;;;;;;18.85;nan;99844.38;4972884;28;20119;-77
2021/07/25 03:48:16;;;;;;;8.65;6.55;;;;;;;18.82;nan;99849.34;4975695;28;20038;-77
2021/07/25 03:50:42;;;;;;;7.47;5.95;;;;;;;18.78;nan;99840.94;4969853;28;20027;-77
2021/07/25 03:53:08;;;;;;;10.43;6.68;;;;;;;18.77;nan;99846.50;4974168;28;20484;-76
2021/07/25 03:55:35;;;;;;;8.15;6.57;;;;;;;18.78;nan;99845.44;4973103;28;20070;-76
2021/07/25 03:58:01;;;;;;;8.40;6.55;;;;;;;18.80;nan;99838.81;4971858;28;20439;-76
2021/07/25 04:00:27;;;;;;;8.23;5.80;;;;;;;18.77;nan;99849.19;4972754;28;20130;-76
2021/07/25 04:02:52;;;;;;;7.75;5.78;;;;;;;18.74;nan;99837.03;4972619;28;20122;-76
2021/07/25 04:05:17;;;;;;;7.35;5.63;;;;;;;18.73;nan;99835.38;4974138;28;20043;-77
2021/07/25 04:07:42;;;;;;;6.85;5.13;;;;;;;18.76;nan;99832.31;4971191;28;20040;-76
2021/07/25 04:10:08;;;;;;;6.10;4.50;;;;;;;18.77;nan;99836.59;4961644;28;20114;-76
2021/07/25 04:12:34;;;;;;;7.60;5.47;;;;;;;18.76;nan;99839.47;4969205;28;20043;-77
2021/07/25 04:15:01;;;;;;;7.00;5.32;;;;;;;18.73;nan;99837.25;4976026;28;20035;-77
2021/07/25 04:17:26;;;;;;;5.95;5.07;;;;;;;18.69;nan;99847.59;4972962;28;20050;-76
2021/07/25 04:19:51;;;;;;;7.55;5.68;;;;;;;18.64;nan;99848.25;4967681;28;20035;-77
2021/07/25 04:22:17;;;;;;;7.50;5.77;;;;;;;18.72;nan;99847.13;4967846;28;20496;-76
2021/07/25 04:24:42;;;;;;;7.60;6.32;;;;;;;18.75;nan;99853.91;4974528;28;20297;-77
2021/07/25 04:27:08;;;;;;;6.68;5.20;;;;;;;18.75;nan;99861.94;4967551;28;20038;-77
2021/07/25 04:29:33;;;;;;;7.93;6.25;;;;;;;18.80;nan;99860.25;4971912;28;20693;-76
2021/07/25 04:31:59;;;;;;;8.50;6.10;;;;;;;18.83;nan;99859.00;4972728;28;20039;-77
2021/07/25 04:34:25;;;;;;;10.00;6.78;;;;;;;18.87;nan;99865.56;4971398;28;20074;-76
2021/07/25 04:36:51;;;;;;;9.75;6.60;;;;;;;18.88;nan;99873.38;4969820;28;20035;-77
2021/07/25 04:39:17;;;;;;;8.45;5.82;;;;;;;18.94;nan;99878.88;4972084;28;20474;-77
2021/07/25 04:41:50;;;;;;;8.70;6.10;;;;;;;19.01;nan;99880.44;4962864;28;20061;-77
2021/07/25 04:44:21;;;;;;;9.85;6.97;;;;;;;19.08;nan;99873.16;4960885;28;20042;-77
2021/07/25 04:46:51;;;;;;;9.43;7.18;;;;;;;19.15;nan;99873.06;4965067;28;20034;-77
2021/07/25 04:49:18;;;;;;;9.02;6.30;;;;;;;19.19;nan;99873.47;4975895;28;20042;-77
2021/07/25 04:51:46;;;;;;;10.32;7.18;;;;;;;19.24;nan;99879.78;4966039;28;20431;-77
2021/07/25 04:54:16;;;;;;;8.43;7.05;;;;;;;19.26;nan;99877.69;4972219;28;20038;-77
2021/07/25 04:56:56;;;;;;;8.43;6.90;;;;;;;19.25;nan;99868.00;4971394;28;20034;-76
2021/07/25 04:59:26;;;;;;;11.52;7.15;;;;;;;19.26;nan;99869.66;4964334;28;20053;-77
2021/07/25 05:01:53;;;;;;;7.88;6.75;;;;;;;19.30;nan;99860.09;4966623;28;20154;-78
2021/07/25 05:04:22;;;;;;;7.40;5.95;;;;;;;19.28;nan;99867.56;4971618;28;20039;-77
2021/07/25 05:06:47;;;;;;;9.65;6.93;;;;;;;19.34;nan;99865.84;4970746;28;20039;-76
2021/07/25 05:09:13;;;;;;;9.63;6.82;;;;;;;19.35;nan;99869.34;4968414;28;20047;-77
2021/07/25 05:11:45;;;;;;;7.47;5.75;;;;;;;19.34;nan;99871.19;4968941;28;20043;-77
2021/07/25 05:14:20;;;;;;;10.07;7.13;;;;;;;19.40;nan;99874.84;4976621;28;20034;-76
2021/07/25 05:16:57;;;;;;;8.80;6.00;;;;;;;19.45;nan;99873.13;4971748;28;20122;-76
2021/07/25 05:20:03;;;;;;;7.80;6.28;;;;;;;19.60;nan;99870.03;4961985;28;20039;-77
2021/07/25 05:22:55;;;;;;;9.93;7.18;;;;;;;19.69;nan;99876.75;4967264;28;20518;-77
2021/07/25 05:25:22;;;;;;;7.65;6.32;;;;;;;19.64;nan;99876.59;4962370;28;20046;-77
2021/07/25 05:27:50;;;;;;;9.10;7.70;;;;;;;19.61;nan;99877.03;4959752;28;20512;-76
2021/07/25 05:30:23;;;;;;;7.00;5.93;;;;;;;19.61;nan;99885.06;4963751;28;20590;-77
2021/07/25 05:32:50;;;;;;;8.20;6.13;;;;;;;19.71;nan;99887.25;4969270;28;20031;-77
2021/07/25 05:35:16;;;;;;;7.78;6.03;;;;;;;19.72;nan;99891.56;4966577;28;20226;-76
2021/07/25 05:37:42;;;;;;;7.50;6.22;;;;;;;19.85;nan;99894.06;4962430;28;20126;-77
2021/07/25 05:40:08;;;;;;;9.15;6.85;;;;;;;19.90;nan;99896.91;4961330;28;20511;-77
2021/07/25 05:42:34;;;;;;;8.43;6.78;;;;;;;19.92;nan;99900.16;4967838;28;20035;-77
2021/07/25 05:45:00;;;;;;;9.60;6.95;;;;;;;20.00;nan;99892.81;4975612;28;20093;-76
2021/07/25 05:47:25;;;;;;;9.35;6.82;;;;;;;20.07;nan;99890.84;4975069;28;20638;-76
2021/07/25 05:49:50;;;;;;;8.65;6.53;;;;;;;20.02;nan;99893.41;4963580;28;20567;-77
2021/07/25 05:52:16;;;;;;;8.20;6.18;;;;;;;20.00;nan;99900.88;4968827;28;20086;-77
2021/07/25 05:54:42;;;;;;;7.82;6.15;;;;;;;19.98;nan;99905.66;4965668;28;20091;-77
2021/07/25 05:57:08;;;;;;;8.70;6.72;;;;;;;20.00;nan;99909.75;4976278;28;20065;-77
2021/07/25 05:59:33;;;;;;;8.68;6.70;;;;;;;20.04;nan;99907.44;4969533;28;20046;-77
2021/07/25 06:02:02;;;;;;;8.70;6.57;;;;;;;20.02;nan;99913.03;4961581;28;20515;-77
2021/07/25 06:04:28;;;;;;;8.18;6.10;;;;;;;20.04;nan;99913.59;4971128;28;20034;-76
2021/07/25 06:06:53;;;;;;;8.18;5.93;;;;;;;20.08;nan;99916.66;4965121;28;20035;-77
2021/07/25 06:09:19;;;;;;;6.88;5.43;;;;;;;20.20;nan;99919.38;4967500;28;20027;-77
2021/07/25 06:11:44;;;;;;;9.25;6.22;;;;;;;20.25;nan;99919.50;4964872;28;20564;-76
2021/07/25 06:14:10;;;;;;;8.52;6.00;;;;;;;20.45;nan;99922.72;4969042;28;20131;-77
2021/07/25 06:16:35;;;;;;;6.93;5.63;;;;;;;;;;4960428;28;20086;-76
2021/07/25 06:19:00;;;;;;;7.77;5.17;;;;;;;21.12;nan;99787.16;4969584;28;20046;-77
2021/07/25 06:21:27;;;;;;;6.78;4.95;;;;;;;;;;4967390;28;20047;-76
2021/07/25 06:23:53;;;;;;;6.05;4.95;;;;;;;22.10;nan;99795.88;4970986;28;20031;-76
2021/07/25 06:26:18;;;;;;;7.97;5.68;;;;;;;22.39;nan;99793.09;4963360;28;20047;-76
2021/07/25 06:28:47;;;;;;;7.07;5.65;;;;;;;22.74;nan;99746.13;4963143;28;20043;-77
2021/07/25 06:31:13;;;;;;;7.63;4.88;;;;;;;22.92;nan;99807.00;4957800;28;20079;-77
2021/07/25 06:33:39;;;;;;;6.30;4.85;;;;;;;23.24;nan;99809.81;4971860;28;20042;-77
2021/07/25 06:36:09;;;;;;;6.88;5.10;;;;;;;;;;4971668;28;20031;-77
2021/07/25 06:38:34;;;;;;;6.32;5.00;;;;;;;;;;4966191;28;20076;-77
2021/07/25 06:41:00;;;;;;;5.20;3.97;;;;;;;24.20;nan;99936.09;4967284;28;20089;-76
2021/07/25 06:43:25;;;;;;;5.60;4.43;;;;;;;24.70;nan;99923.28;4968658;28;20175;-77
2021/07/25 06:45:50;;;;;;;5.75;4.65;;;;;;;25.20;nan;99919.28;4958733;28;20083;-77
2021/07/25 06:48:18;;;;;;;6.32;4.43;;;;;;;25.88;nan;99923.84;4976999;28;20027;-77
2021/07/25 06:50:51;;;;;;;5.88;4.97;;;;;;;26.18;nan;99921.19;4963093;28;20039;-76
2021/07/25 06:53:18;;;;;;;5.25;4.30;;;;;;;26.47;nan;99924.16;4974245;28;20039;-77
2021/07/25 06:55:44;;;;;;;5.72;4.45;;;;;;;26.58;nan;99927.72;4972728;28;20539;-76
2021/07/25 06:58:09;;;;;;;5.07;3.70;;;;;;;26.76;nan;99920.91;4974953;28;20466;-77
2021/07/25 07:00:34;;;;;;;4.40;3.35;;;;;;;26.97;nan;99926.28;4973670;28;20039;-77
2021/07/25 07:03:00;;;;;;;4.18;3.20;;;;;;;27.51;nan;99917.44;4974646;28;20550;-76
2021/07/25 07:05:27;;;;;;;5.80;3.65;;;;;;;27.86;nan;99930.03;4966489;28;20135;-76
2021/07/25 07:07:58;;;;;;;5.53;4.13;;;;;;;27.74;nan;99930.38;4975294;28;20062;-77
2021/07/25 07:10:30;;;;;;;4.25;3.67;;;;;;;27.55;nan;99932.06;4966341;28;20043;-78
2021/07/25 07:12:56;;;;;;;4.72;3.75;;;;;;;27.46;nan;99931.03;4966571;28;20442;-77
2021/07/25 07:15:23;;;;;;;5.35;3.45;;;;;;;27.14;nan;99921.34;4974931;28;20495;-76
2021/07/25 07:17:50;;;;;;;4.28;2.90;;;;;;;27.30;nan;99928.38;4965878;28;20077;-77
2021/07/25 07:20:16;;;;;;;4.60;3.20;;;;;;;28.14;nan;99914.06;4969043;28;20046;-77
2021/07/25 07:22:42;;;;;;;4.13;3.47;;;;;;;28.35;nan;99920.16;4972923;28;20415;-76
2021/07/25 07:25:08;;;;;;;4.13;2.80;;;;;;;28.61;nan;99923.50;4959547;28;20365;-76
2021/07/25 07:27:34;;;;;;;4.75;2.58;;;;;;;29.14;nan;99920.78;4973279;28;20050;-77
2021/07/25 07:29:59;;;;;;;4.18;3.15;;;;;;;29.19;nan;99920.72;4968113;28;20037;-78
2021/07/25 07:32:25;;;;;;;6.60;3.40;;;;;;;28.00;nan;99911.19;4960845;28;20501;-76
2021/07/25 07:34:50;;;;;;;4.43;2.70;;;;;;;28.61;nan;99909.09;4965879;28;20094;-77
2021/07/25 07:37:16;;;;;;;4.57;3.53;;;;;;;28.30;nan;99906.63;4959500;28;20444;-77
2021/07/25 07:39:42;;;;;;;4.22;3.20;;;;;;;27.79;nan;99913.19;4971725;28;20038;-77
2021/07/25 07:42:10;;;;;;;4.65;3.38;;;;;;;27.54;nan;99911.44;4960308;28;20526;-77
2021/07/25 07:44:36;;;;;;;4.18;3.00;;;;;;;27.36;nan;99909.34;4964069;28;20377;-77
2021/07/25 07:47:04;;;;;;;4.78;2.92;;;;;;;27.54;nan;99909.53;4967687;28;20063;-77
2021/07/25 07:49:29;;;;;;;4.65;3.30;;;;;;;27.89;nan;99915.09;4975498;28;20030;-77
2021/07/25 07:51:55;;;;;;;4.03;2.90;;;;;;;28.00;nan;99915.81;4975235;28;20101;-77
2021/07/25 07:54:20;;;;;;;3.65;3.22;;;;;;;27.94;nan;99912.34;4979587;28;20031;-76
2021/07/25 07:56:46;;;;;;;4.38;2.88;;;;;;;27.19;nan;99909.66;4965462;28;20041;-77
2021/07/25 07:59:11;;;;;;;3.80;2.90;;;;;;;27.66;nan;99916.53;4972121;28;20053;-77
2021/07/25 08:01:37;;;;;;;4.68;3.15;;;;;;;27.93;nan;99916.13;4961532;28;20036;-76
2021/07/25 08:04:02;;;;;;;3.95;2.88;;;;;;;28.23;nan;99912.38;4973260;28;20403;-77
2021/07/25 08:06:27;;;;;;;4.13;2.58;;;;;;;28.79;nan;99911.06;4968445;28;20031;-76
2021/07/25 08:08:53;;;;;;;4.00;2.65;;;;;;;29.20;nan;99903.31;4981365;28;20451;-77
2021/07/25 08:11:18;;;;;;;3.72;2.50;;;;;;;29.37;nan;99897.38;4964913;28;20062;-77
2021/07/25 08:13:44;;;;;;;4.18;2.90;;;;;;;30.04;nan;99907.34;4971188;28;20499;-76
2021/07/25 08:16:10;;;;;;;3.10;2.50;;;;;;;30.12;nan;99912.13;4970406;28;20026;-76
2021/07/25 08:18:36;;;;;;;2.85;2.50;;;;;;;30.40;nan;99912.25;4973098;28;20050;-77
2021/07/25 08:21:01;;;;;;;3.88;2.58;;;;;;;30.80;nan;99912.63;4977779;28;20031;-76
2021/07/25 08:23:27;;;;;;;3.83;2.78;;;;;;;31.17;nan;99917.09;4979754;28;20108;-76
2021/07/25 08:25:52;;;;;;;3.33;2.63;;;;;;;30.60;nan;99919.25;4972861;28;20097;-77
2021/07/25 08:28:18;;;;;;;3.67;2.50;;;;;;;30.46;nan;99916.47;4972704;28;20376;-77
2021/07/25 08:30:43;;;;;;;4.78;2.58;;;;;;;29.51;nan;99905.63;4964923;28;20500;-76
2021/07/25 08:33:09;;;;;;;3.42;2.55;;;;;;;28.91;nan;99907.94;4968334;28;20104;-77
2021/07/25 08:35:34;;;;;;;4.13;2.90;;;;;;;29.60;nan;99903.03;4971013;28;20066;-77
2021/07/25 08:37:59;;;;;;;4.70;2.72;;;;;;;29.59;nan;99907.69;4973578;28;20046;-77
2021/07/25 08:40:25;;;;;;;3.40;2.47;;;;;;;30.72;nan;99907.84;4970115;28;20042;-77
2021/07/25 08:43:08;;;;;;;5.10;2.95;;;;;;;31.39;nan;99902.69;4965112;28;20030;-77
2021/07/25 08:45:36;;;;;;;3.42;2.55;;;;;;;31.65;nan;99904.91;4958391;28;20068;-77
2021/07/25 08:48:13;;;;;;;3.75;2.50;;;;;;;32.43;nan;99908.25;4973052;28;20037;-77
2021/07/25 08:50:56;;;;;;;3.72;2.50;;;;;;;33.05;nan;99903.91;4971360;28;20436;-77
2021/07/25 08:53:26;;;;;;;3.80;2.38;;;;;;;33.06;nan;99903.63;4970522;28;20039;-76
2021/07/25 08:55:52;;;;;;;3.35;2.30;;;;;;;33.06;nan;99903.63;4967106;28;20030;-77
2021/07/25 08:58:21;;;;;;;3.45;2.60;;;;;;;33.16;nan;99894.28;4963830;28;20069;-77
2021/07/25 09:00:49;;;;;;;3.47;2.45;;;;;;;33.54;nan;99902.75;4969414;28;20039;-76
2021/07/25 09:03:15;;;;;;;3.78;2.33;;;;;;;33.52;nan;99902.25;4974239;28;20035;-77
2021/07/25 09:05:42;;;;;;;3.15;2.15;;;;;;;34.14;nan;99911.34;4962141;28;20082;-77
2021/07/25 09:08:09;;;;;;;3.17;2.40;;;;;;;33.84;nan;99902.94;4965628;28;20558;-77
2021/07/25 09:10:35;;;;;;;3.83;2.03;;;;;;;33.62;nan;99903.91;4962987;28;20035;-77
2021/07/25 09:13:01;;;;;;;3.20;2.50;;;;;;;33.77;nan;99905.34;4976394;28;20491;-77
2021/07/25 09:15:30;;;;;;;3.72;2.45;;;;;;;34.13;nan;99904.22;4970887;28;20097;-76
2021/07/25 09:17:58;;;;;;;3.90;2.42;;;;;;;34.01;nan;99899.38;4960796;28;20031;-76
2021/07/25 09:20:26;;;;;;;2.70;2.17;;;;;;;33.47;nan;99899.66;4963873;28;20065;-77
2021/07/25 09:22:52;;;;;;;4.60;2.70;;;;;;;32.80;nan;99906.22;4970890;28;20085;-77
2021/07/25 09:25:20;;;;;;;2.80;2.20;;;;;;;31.97;nan;99900.41;4962027;28;20047;-77
2021/07/25 09:28:07;;;;;;;2.67;2.13;;;;;;;31.55;nan;99900.47;4975524;28;20034;-77
2021/07/25 09:30:33;;;;;;;3.03;2.28;;;;;;;31.61;nan;99906.66;4970588;28;20036;-77
2021/07/25 09:32:59;;;;;;;3.60;2.40;;;;;;;31.59;nan;99908.88;4973598;28;20105;-77
2021/07/25 09:35:36;;;;;;;3.38;2.60;;;;;;;31.11;nan;99904.69;4973440;28;20488;-77
2021/07/25 09:38:01;;;;;;;3.17;2.30;;;;;;;30.97;nan;99904.66;4979361;28;20384;-77
2021/07/25 09:40:29;;;;;;;4.23;2.40;;;;;;;31.38;nan;99909.28;4967573;28;20042;-77
2021/07/25 09:43:09;;;;;;;3.05;2.28;;;;;;;31.47;nan;99912.16;4964955;28;20122;-77
2021/07/25 09:45:58;;;;;;;3.03;2.33;;;;;;;30.90;nan;99898.81;4973124;28;20117;-77
2021/07/25 09:48:29;;;;;;;4.45;2.50;;;;;;;30.00;nan;99898.94;4972852;28;20436;-76
2021/07/25 09:51:02;;;;;;;3.30;2.50;;;;;;;29.47;nan;99895.63;4989107;28;20035;-76
2021/07/25 09:53:43;;;;;;;3.60;2.72;;;;;;;29.73;nan;99901.56;4971861;28;20041;-76
2021/07/25 09:56:17;;;;;;;3.42;2.40;;;;;;;29.90;nan;99903.75;4969198;28;20038;-76
2021/07/25 09:58:43;;;;;;;2.92;2.38;;;;;;;29.54;nan;99904.22;4973415;28;20035;-76
2021/07/25 10:01:09;;;;;;;3.65;2.40;;;;;;;29.32;nan;99902.88;4973936;28;20044;-76
2021/07/25 10:03:34;;;;;;;4.47;2.50;;;;;;;29.00;nan;99898.06;4971566;28;20131;-76
2021/07/25 10:06:19;;;;;;;3.47;2.22;;;;;;;28.64;nan;99897.63;4982071;28;20043;-76
2021/07/25 10:08:45;;;;;;;2.97;2.20;;;;;;;28.43;nan;99897.78;4962993;28;20043;-77
2021/07/25 10:11:18;;;;;;;3.33;2.33;;;;;;;28.46;nan;99904.59;4967806;28;20064;-77
2021/07/25 10:13:44;;;;;;;3.83;2.83;;;;;;;28.79;nan;99898.31;4962035;28;20043;-76
2021/07/25 10:16:09;;;;;;;5.05;2.42;;;;;;;28.92;nan;99898.72;4965731;28;20518;-77
2021/07/25 10:18:35;;;;;;;6.25;3.10;;;;;;;29.25;nan;99896.16;4956180;28;20195;-77
2021/07/25 10:21:00;;;;;;;3.45;2.80;;;;;;;28.77;nan;99902.38;4973198;28;20492;-77
2021/07/25 10:23:36;;;;;;;3.30;2.60;;;;;;;28.22;nan;99894.47;4970772;28;20070;-77
2021/07/25 10:26:03;;;;;;;6.30;3.17;;;;;;;28.43;nan;99900.50;4982774;28;20035;-77
2021/07/25 10:28:32;;;;;;;6.63;3.13;;;;;;;28.27;nan;99899.84;4980516;28;20118;-77
2021/07/25 10:30:59;;;;;;;4.72;3.30;;;;;;;28.72;nan;99892.38;4968934;28;20027;-77
2021/07/25 10:33:26;;;;;;;4.55;3.10;;;;;;;28.89;nan;99894.66;4969891;28;20464;-76
2021/07/25 10:35:52;;;;;;;3.58;2.70;;;;;;;29.37;nan;99905.53;4965846;28;20030;-77
2021/07/25 10:38:17;;;;;;;4.80;3.10;;;;;;;29.61;nan;99896.50;4981636;28;20042;-76
2021/07/25 10:40:45;;;;;;;4.15;2.92;;;;;;;29.64;nan;99896.72;4971992;28;20092;-75
2021/07/25 10:43:13;;;;;;;3.70;2.70;;;;;;;29.47;nan;99899.13;4966099;28;20038;-76
2021/07/25 10:45:38;;;;;;;4.72;2.70;;;;;;;29.45;nan;99895.09;4972756;28;20081;-76
2021/07/25 10:48:16;;;;;;;4.72;2.97;;;;;;;29.30;nan;99894.19;4978332;28;20109;-76
2021/07/25 10:50:42;;;;;;;4.15;2.50;;;;;;;29.63;nan;99892.38;4968608;28;20051;-75
2021/07/25 10:53:21;;;;;;;3.78;2.70;;;;;;;29.56;nan;99902.03;4968228;28;20070;-77
2021/07/25 10:55:47;;;;;;;4.22;2.80;;;;;;;29.38;nan;99896.25;4966426;28;20046;-76
2021/07/25 10:58:16;;;;;;;5.32;2.72;;;;;;;29.21;nan;99885.84;4974702;28;20039;-77
2021/07/25 11:00:51;;;;;;;4.10;2.70;;;;;;;28.85;nan;99887.34;4966150;28;20381;-77
2021/07/25 11:03:25;;;;;;;4.10;2.30;;;;;;;29.00;nan;99882.53;4978762;28;20569;-76
2021/07/25 11:06:00;;;;;;;3.95;2.60;;;;;;;28.72;nan;99888.84;4975990;28;20061;-76
2021/07/25 11:08:35;;;;;;;4.63;2.58;;;;;;;29.01;nan;99886.09;4975570;28;20407;-76
2021/07/25 11:11:21;;;;;;;4.38;2.40;;;;;;;29.12;nan;99889.50;4963200;28;20631;-75
2021/07/25 11:13:46;;;;;;;4.88;2.72;;;;;;;29.27;nan;99878.44;4976436;28;20400;-76
2021/07/25 11:16:30;;;;;;;4.13;2.53;;;;;;;29.09;nan;99873.75;4965719;28;20098;-76
2021/07/25 11:19:08;;;;;;;3.05;2.17;;;;;;;28.83;nan;99867.78;4977595;28;20404;-76
2021/07/25 11:21:40;;;;;;;3.28;2.30;;;;;;;28.76;nan;99866.19;4957959;28;20039;-76
2021/07/25 11:24:18;;;;;;;2.83;2.42;;;;;;;29.10;nan;99867.22;4963792;28;20039;-76
2021/07/25 11:26:43;;;;;;;3.75;2.40;;;;;;;29.34;nan;99868.00;4965879;28;20121;-76
2021/07/25 11:29:10;;;;;;;3.28;2.55;;;;;;;29.38;nan;99869.00;4972991;28;20178;-76
2021/07/25 11:31:44;;;;;;;3.38;2.45;;;;;;;28.96;nan;99864.34;4971289;28;20039;-76
2021/07/25 11:34:33;;;;;;;2.88;2.25;;;;;;;29.15;nan;99870.69;4961537;28;20038;-76
2021/07/25 11:37:02;;;;;;;3.58;2.47;;;;;;;29.38;nan;99871.75;4964832;28;20027;-75
2021/07/25 11:39:27;;;;;;;2.92;2.28;;;;;;;29.64;nan;99857.75;4965149;28;20093;-76
2021/07/25 11:41:53;;;;;;;3.70;2.20;;;;;;;29.81;nan;99870.91;4968093;28;20484;-76
2021/07/25 11:44:29;;;;;;;3.17;2.13;;;;;;;30.04;nan;99874.63;4963035;28;20126;-75
2021/07/25 11:46:59;;;;;;;4.57;2.40;;;;;;;29.95;nan;99870.97;4972793;28;20570;-76
2021/07/25 11:49:25;;;;;;;3.20;2.10;;;;;;;30.08;nan;99872.09;4962553;28;20069;-76
2021/07/25 11:52:00;;;;;;;3.30;2.50;;;;;;;30.20;nan;99864.25;4967592;28;20046;-76
2021/07/25 11:54:39;;;;;;;3.00;2.30;;;;;;;30.23;nan;99866.41;4964402;28;20182;-76
2021/07/25 11:57:05;;;;;;;4.35;2.30;;;;;;;30.04;nan;99861.81;4966246;28;20027;-76